sensor_id;sensor_type;location;lat;lon;timestamp;P1;P2;P0
42410;PMS5003;28056;51.112;0.984;2024-02-26T00:00:09;3;2;
42410;PMS5003;28056;51.112;0.984;2024-02-26T00:02:37;2;2;
42410;PMS5003;28056;51.112;0.984;2024-02-26T00:05:05;2;2;
42410;PMS5003;28056;51.112;0.984;2024-02-26T00:07:33;3;1;
42410;PMS5003;28056;51.112;0.984;2024-02-26T00:10:01;2;2;
42410;PMS5003;28056;51.112;0.984;2024-02-26T00:12:29;3;3;
42410;PMS5003;28056;51.112;0.984;2024-02-26T00:14:57;2;2;
42410;PMS5003;28056;51.112;0.984;2024-02-26T00:17:24;3;3;
42410;PMS5003;28056;51.112;0.984;2024-02-26T00:19:51;5;5;
42410;PMS5003;28056;51.112;0.984;2024-02-26T00:22:18;6;3;
42410;PMS5003;28056;51.112;0.984;2024-02-26T00:24:45;5;3;
42410;PMS5003;28056;51.112;0.984;2024-02-26T00:27:12;2;2;
42410;PMS5003;28056;51.112;0.984;2024-02-26T00:29:39;5;5;
42410;PMS5003;28056;51.112;0.984;2024-02-26T00:32:06;3;3;
42410;PMS5003;28056;51.112;0.984;2024-02-26T00:34:34;5;2;
42410;PMS5003;28056;51.112;0.984;2024-02-26T00:37:02;5;3;
42410;PMS5003;28056;51.112;0.984;2024-02-26T00:39:30;6;3;
42410;PMS5003;28056;51.112;0.984;2024-02-26T00:41:57;3;3;
42410;PMS5003;28056;51.112;0.984;2024-02-26T00:44:24;3;3;
42410;PMS5003;28056;51.112;0.984;2024-02-26T00:46:51;7;5;
42410;PMS5003;28056;51.112;0.984;2024-02-26T00:49:18;3;3;
42410;PMS5003;28056;51.112;0.984;2024-02-26T00:51:50;3;3;
42410;PMS5003;28056;51.112;0.984;2024-02-26T00:54:17;7;5;
42410;PMS5003;28056;51.112;0.984;2024-02-26T00:56:45;3;3;
42410;PMS5003;28056;51.112;0.984;2024-02-26T00:59:12;5;5;
42410;PMS5003;28056;51.112;0.984;2024-02-26T01:04:52;5;5;
42410;PMS5003;28056;51.112;0.984;2024-02-26T01:07:19;2;2;
42410;PMS5003;28056;51.112;0.984;2024-02-26T01:09:46;6;5;
42410;PMS5003;28056;51.112;0.984;2024-02-26T01:12:13;8;6;
42410;PMS5003;28056;51.112;0.984;2024-02-26T01:14:41;2;2;
42410;PMS5003;28056;51.112;0.984;2024-02-26T01:17:09;5;4;
42410;PMS5003;28056;51.112;0.984;2024-02-26T01:19:36;5;2;
42410;PMS5003;28056;51.112;0.984;2024-02-26T01:22:03;2;2;
42410;PMS5003;28056;51.112;0.984;2024-02-26T01:24:31;1;1;
42410;PMS5003;28056;51.112;0.984;2024-02-26T01:26:58;2;2;
42410;PMS5003;28056;51.112;0.984;2024-02-26T01:29:25;3;3;
42410;PMS5003;28056;51.112;0.984;2024-02-26T01:31:52;9;5;
42410;PMS5003;28056;51.112;0.984;2024-02-26T01:34:19;6;4;
42410;PMS5003;28056;51.112;0.984;2024-02-26T01:36:46;8;6;
42410;PMS5003;28056;51.112;0.984;2024-02-26T01:39:13;6;4;
42410;PMS5003;28056;51.112;0.984;2024-02-26T01:41:40;6;6;
42410;PMS5003;28056;51.112;0.984;2024-02-26T01:44:08;4;4;
42410;PMS5003;28056;51.112;0.984;2024-02-26T01:46:38;4;2;
42410;PMS5003;28056;51.112;0.984;2024-02-26T01:49:06;6;3;
42410;PMS5003;28056;51.112;0.984;2024-02-26T01:51:36;5;4;
42410;PMS5003;28056;51.112;0.984;2024-02-26T01:54:05;9;3;
42410;PMS5003;28056;51.112;0.984;2024-02-26T01:56:35;7;3;
42410;PMS5003;28056;51.112;0.984;2024-02-26T01:59:05;6;5;
42410;PMS5003;28056;51.112;0.984;2024-02-26T02:01:33;6;4;
42410;PMS5003;28056;51.112;0.984;2024-02-26T02:04:01;6;4;
42410;PMS5003;28056;51.112;0.984;2024-02-26T02:06:29;8;8;
42410;PMS5003;28056;51.112;0.984;2024-02-26T02:08:56;5;5;
42410;PMS5003;28056;51.112;0.984;2024-02-26T02:11:24;5;5;
42410;PMS5003;28056;51.112;0.984;2024-02-26T02:13:51;8;6;
42410;PMS5003;28056;51.112;0.984;2024-02-26T02:16:18;10;7;
42410;PMS5003;28056;51.112;0.984;2024-02-26T02:18:45;8;8;
42410;PMS5003;28056;51.112;0.984;2024-02-26T02:21:17;6;6;
42410;PMS5003;28056;51.112;0.984;2024-02-26T02:23:44;5;4;
42410;PMS5003;28056;51.112;0.984;2024-02-26T02:26:11;5;5;
42410;PMS5003;28056;51.112;0.984;2024-02-26T02:28:39;6;4;
42410;PMS5003;28056;51.112;0.984;2024-02-26T02:31:07;6;5;
42410;PMS5003;28056;51.112;0.984;2024-02-26T02:33:35;10;6;
42410;PMS5003;28056;51.112;0.984;2024-02-26T02:36:03;6;4;
42410;PMS5003;28056;51.112;0.984;2024-02-26T02:38:30;8;8;
42410;PMS5003;28056;51.112;0.984;2024-02-26T02:40:58;4;4;
42410;PMS5003;28056;51.112;0.984;2024-02-26T02:43:25;10;6;
42410;PMS5003;28056;51.112;0.984;2024-02-26T02:45:52;6;6;
42410;PMS5003;28056;51.112;0.984;2024-02-26T02:48:19;5;4;
42410;PMS5003;28056;51.112;0.984;2024-02-26T02:50:46;6;6;
42410;PMS5003;28056;51.112;0.984;2024-02-26T02:53:14;5;5;
42410;PMS5003;28056;51.112;0.984;2024-02-26T02:55:42;4;4;
42410;PMS5003;28056;51.112;0.984;2024-02-26T02:58:09;4;4;
42410;PMS5003;28056;51.112;0.984;2024-02-26T03:00:36;6;6;
42410;PMS5003;28056;51.112;0.984;2024-02-26T03:03:03;8;6;
42410;PMS5003;28056;51.112;0.984;2024-02-26T03:05:31;5;2;
42410;PMS5003;28056;51.112;0.984;2024-02-26T03:07:58;7;5;
42410;PMS5003;28056;51.112;0.984;2024-02-26T03:10:25;9;8;
42410;PMS5003;28056;51.112;0.984;2024-02-26T03:12:53;8;5;
42410;PMS5003;28056;51.112;0.984;2024-02-26T03:15:20;8;6;
42410;PMS5003;28056;51.112;0.984;2024-02-26T03:17:47;6;5;
42410;PMS5003;28056;51.112;0.984;2024-02-26T03:20:14;6;6;
42410;PMS5003;28056;51.112;0.984;2024-02-26T03:22:42;9;6;
42410;PMS5003;28056;51.112;0.984;2024-02-26T03:25:10;6;6;
42410;PMS5003;28056;51.112;0.984;2024-02-26T03:27:37;2;2;
42410;PMS5003;28056;51.112;0.984;2024-02-26T03:30:05;8;6;
42410;PMS5003;28056;51.112;0.984;2024-02-26T03:32:33;9;5;
42410;PMS5003;28056;51.112;0.984;2024-02-26T03:35:00;5;5;
42410;PMS5003;28056;51.112;0.984;2024-02-26T03:37:27;6;5;
42410;PMS5003;28056;51.112;0.984;2024-02-26T03:39:54;5;5;
42410;PMS5003;28056;51.112;0.984;2024-02-26T03:42:21;6;5;
42410;PMS5003;28056;51.112;0.984;2024-02-26T03:44:48;6;5;
42410;PMS5003;28056;51.112;0.984;2024-02-26T03:47:16;9;6;
42410;PMS5003;28056;51.112;0.984;2024-02-26T03:49:43;6;4;
42410;PMS5003;28056;51.112;0.984;2024-02-26T03:52:11;8;6;
42410;PMS5003;28056;51.112;0.984;2024-02-26T03:54:38;6;6;
42410;PMS5003;28056;51.112;0.984;2024-02-26T03:57:05;8;6;
42410;PMS5003;28056;51.112;0.984;2024-02-26T03:59:32;6;5;
42410;PMS5003;28056;51.112;0.984;2024-02-26T04:02:00;7;6;
42410;PMS5003;28056;51.112;0.984;2024-02-26T04:04:28;14;8;
42410;PMS5003;28056;51.112;0.984;2024-02-26T04:06:55;9;9;
42410;PMS5003;28056;51.112;0.984;2024-02-26T04:09:22;9;6;
42410;PMS5003;28056;51.112;0.984;2024-02-26T04:11:49;8;8;
42410;PMS5003;28056;51.112;0.984;2024-02-26T04:14:16;6;6;
42410;PMS5003;28056;51.112;0.984;2024-02-26T04:16:44;10;6;
42410;PMS5003;28056;51.112;0.984;2024-02-26T04:19:11;9;9;
42410;PMS5003;28056;51.112;0.984;2024-02-26T04:21:38;12;5;
42410;PMS5003;28056;51.112;0.984;2024-02-26T04:24:08;8;6;
42410;PMS5003;28056;51.112;0.984;2024-02-26T04:26:36;10;8;
42410;PMS5003;28056;51.112;0.984;2024-02-26T04:29:04;9;8;
42410;PMS5003;28056;51.112;0.984;2024-02-26T04:31:31;8;5;
42410;PMS5003;28056;51.112;0.984;2024-02-26T04:33:58;5;5;
42410;PMS5003;28056;51.112;0.984;2024-02-26T04:36:25;4;4;
42410;PMS5003;28056;51.112;0.984;2024-02-26T04:38:52;8;5;
42410;PMS5003;28056;51.112;0.984;2024-02-26T04:41:19;4;4;
42410;PMS5003;28056;51.112;0.984;2024-02-26T04:43:46;9;6;
42410;PMS5003;28056;51.112;0.984;2024-02-26T04:46:13;6;6;
42410;PMS5003;28056;51.112;0.984;2024-02-26T04:48:41;9;6;
42410;PMS5003;28056;51.112;0.984;2024-02-26T04:51:08;8;5;
42410;PMS5003;28056;51.112;0.984;2024-02-26T04:53:35;6;6;
42410;PMS5003;28056;51.112;0.984;2024-02-26T04:56:03;8;8;
42410;PMS5003;28056;51.112;0.984;2024-02-26T04:58:31;9;5;
42410;PMS5003;28056;51.112;0.984;2024-02-26T05:00:58;8;5;
42410;PMS5003;28056;51.112;0.984;2024-02-26T05:03:25;4;4;
42410;PMS5003;28056;51.112;0.984;2024-02-26T05:05:52;8;5;
42410;PMS5003;28056;51.112;0.984;2024-02-26T05:08:19;8;5;
42410;PMS5003;28056;51.112;0.984;2024-02-26T05:10:46;5;5;
42410;PMS5003;28056;51.112;0.984;2024-02-26T05:13:13;10;8;
42410;PMS5003;28056;51.112;0.984;2024-02-26T05:15:40;9;6;
42410;PMS5003;28056;51.112;0.984;2024-02-26T05:18:07;5;5;
42410;PMS5003;28056;51.112;0.984;2024-02-26T05:20:35;8;5;
42410;PMS5003;28056;51.112;0.984;2024-02-26T05:23:02;8;6;
42410;PMS5003;28056;51.112;0.984;2024-02-26T05:25:30;5;5;
42410;PMS5003;28056;51.112;0.984;2024-02-26T05:27:58;8;8;
42410;PMS5003;28056;51.112;0.984;2024-02-26T05:30:25;10;8;
42410;PMS5003;28056;51.112;0.984;2024-02-26T05:32:52;8;4;
42410;PMS5003;28056;51.112;0.984;2024-02-26T05:35:19;8;8;
42410;PMS5003;28056;51.112;0.984;2024-02-26T05:37:46;8;5;
42410;PMS5003;28056;51.112;0.984;2024-02-26T05:40:13;13;6;
42410;PMS5003;28056;51.112;0.984;2024-02-26T05:42:41;9;9;
42410;PMS5003;28056;51.112;0.984;2024-02-26T05:45:08;7;7;
42410;PMS5003;28056;51.112;0.984;2024-02-26T05:47:36;5;5;
42410;PMS5003;28056;51.112;0.984;2024-02-26T05:50:05;6;6;
42410;PMS5003;28056;51.112;0.984;2024-02-26T05:52:33;8;8;
42410;PMS5003;28056;51.112;0.984;2024-02-26T05:55:00;8;8;
42410;PMS5003;28056;51.112;0.984;2024-02-26T05:57:28;10;8;
42410;PMS5003;28056;51.112;0.984;2024-02-26T05:59:56;9;6;
42410;PMS5003;28056;51.112;0.984;2024-02-26T06:02:23;6;6;
42410;PMS5003;28056;51.112;0.984;2024-02-26T06:04:50;6;6;
42410;PMS5003;28056;51.112;0.984;2024-02-26T06:07:17;4;4;
42410;PMS5003;28056;51.112;0.984;2024-02-26T06:09:44;10;8;
42410;PMS5003;28056;51.112;0.984;2024-02-26T06:12:11;10;8;
42410;PMS5003;28056;51.112;0.984;2024-02-26T06:14:39;10;8;
42410;PMS5003;28056;51.112;0.984;2024-02-26T06:17:06;6;6;
42410;PMS5003;28056;51.112;0.984;2024-02-26T06:19:33;8;5;
42410;PMS5003;28056;51.112;0.984;2024-02-26T06:22:01;5;5;
42410;PMS5003;28056;51.112;0.984;2024-02-26T06:24:28;6;5;
42410;PMS5003;28056;51.112;0.984;2024-02-26T06:26:55;9;5;
42410;PMS5003;28056;51.112;0.984;2024-02-26T06:29:23;13;6;
42410;PMS5003;28056;51.112;0.984;2024-02-26T06:31:50;8;4;
42410;PMS5003;28056;51.112;0.984;2024-02-26T06:34:18;10;6;
42410;PMS5003;28056;51.112;0.984;2024-02-26T06:36:46;12;6;
42410;PMS5003;28056;51.112;0.984;2024-02-26T06:39:13;6;6;
42410;PMS5003;28056;51.112;0.984;2024-02-26T06:41:40;12;6;
42410;PMS5003;28056;51.112;0.984;2024-02-26T06:44:07;6;6;
42410;PMS5003;28056;51.112;0.984;2024-02-26T06:46:34;5;5;
42410;PMS5003;28056;51.112;0.984;2024-02-26T06:49:02;9;5;
42410;PMS5003;28056;51.112;0.984;2024-02-26T06:51:29;9;8;
42410;PMS5003;28056;51.112;0.984;2024-02-26T06:53:56;8;6;
42410;PMS5003;28056;51.112;0.984;2024-02-26T06:56:23;8;5;
42410;PMS5003;28056;51.112;0.984;2024-02-26T06:58:50;5;5;
42410;PMS5003;28056;51.112;0.984;2024-02-26T07:01:17;5;5;
42410;PMS5003;28056;51.112;0.984;2024-02-26T07:03:45;6;5;
42410;PMS5003;28056;51.112;0.984;2024-02-26T07:06:12;4;4;
42410;PMS5003;28056;51.112;0.984;2024-02-26T07:08:39;6;6;
42410;PMS5003;28056;51.112;0.984;2024-02-26T07:11:07;5;4;
42410;PMS5003;28056;51.112;0.984;2024-02-26T07:13:35;6;5;
42410;PMS5003;28056;51.112;0.984;2024-02-26T07:16:03;8;8;
42410;PMS5003;28056;51.112;0.984;2024-02-26T07:18:30;8;4;
42410;PMS5003;28056;51.112;0.984;2024-02-26T07:21:01;5;2;
42410;PMS5003;28056;51.112;0.984;2024-02-26T07:23:29;5;5;
42410;PMS5003;28056;51.112;0.984;2024-02-26T07:25:56;5;5;
42410;PMS5003;28056;51.112;0.984;2024-02-26T07:28:24;9;5;
42410;PMS5003;28056;51.112;0.984;2024-02-26T07:30:52;4;4;
42410;PMS5003;28056;51.112;0.984;2024-02-26T07:33:19;4;4;
42410;PMS5003;28056;51.112;0.984;2024-02-26T07:35:46;6;5;
42410;PMS5003;28056;51.112;0.984;2024-02-26T07:38:13;5;5;
42410;PMS5003;28056;51.112;0.984;2024-02-26T07:40:40;6;5;
42410;PMS5003;28056;51.112;0.984;2024-02-26T07:43:07;6;4;
42410;PMS5003;28056;51.112;0.984;2024-02-26T07:45:34;5;5;
42410;PMS5003;28056;51.112;0.984;2024-02-26T07:48:01;5;5;
42410;PMS5003;28056;51.112;0.984;2024-02-26T07:50:29;4;4;
42410;PMS5003;28056;51.112;0.984;2024-02-26T07:52:56;4;4;
42410;PMS5003;28056;51.112;0.984;2024-02-26T07:55:23;5;5;
42410;PMS5003;28056;51.112;0.984;2024-02-26T07:57:50;5;4;
42410;PMS5003;28056;51.112;0.984;2024-02-26T08:00:18;9;5;
42410;PMS5003;28056;51.112;0.984;2024-02-26T08:02:45;8;5;
42410;PMS5003;28056;51.112;0.984;2024-02-26T08:05:13;5;5;
42410;PMS5003;28056;51.112;0.984;2024-02-26T08:07:40;6;4;
42410;PMS5003;28056;51.112;0.984;2024-02-26T08:10:07;6;4;
42410;PMS5003;28056;51.112;0.984;2024-02-26T08:12:35;8;5;
42410;PMS5003;28056;51.112;0.984;2024-02-26T08:15:03;11;6;
42410;PMS5003;28056;51.112;0.984;2024-02-26T08:17:31;5;4;
42410;PMS5003;28056;51.112;0.984;2024-02-26T08:19:59;4;4;
42410;PMS5003;28056;51.112;0.984;2024-02-26T08:22:26;4;4;
42410;PMS5003;28056;51.112;0.984;2024-02-26T08:24:54;6;4;
42410;PMS5003;28056;51.112;0.984;2024-02-26T08:27:22;9;4;
42410;PMS5003;28056;51.112;0.984;2024-02-26T08:29:49;9;5;
42410;PMS5003;28056;51.112;0.984;2024-02-26T08:32:16;4;4;
42410;PMS5003;28056;51.112;0.984;2024-02-26T08:34:43;5;4;
42410;PMS5003;28056;51.112;0.984;2024-02-26T08:37:10;1;1;
42410;PMS5003;28056;51.112;0.984;2024-02-26T08:39:37;4;2;
42410;PMS5003;28056;51.112;0.984;2024-02-26T08:42:05;5;4;
42410;PMS5003;28056;51.112;0.984;2024-02-26T08:44:32;4;4;
42410;PMS5003;28056;51.112;0.984;2024-02-26T08:47:00;4;4;
42410;PMS5003;28056;51.112;0.984;2024-02-26T08:49:28;4;4;
42410;PMS5003;28056;51.112;0.984;2024-02-26T08:51:55;4;2;
42410;PMS5003;28056;51.112;0.984;2024-02-26T08:54:22;1;1;
42410;PMS5003;28056;51.112;0.984;2024-02-26T08:56:49;5;5;
42410;PMS5003;28056;51.112;0.984;2024-02-26T08:59:17;5;4;
42410;PMS5003;28056;51.112;0.984;2024-02-26T09:01:44;4;2;
42410;PMS5003;28056;51.112;0.984;2024-02-26T09:04:11;1;1;
42410;PMS5003;28056;51.112;0.984;2024-02-26T09:06:38;6;2;
42410;PMS5003;28056;51.112;0.984;2024-02-26T09:09:05;2;2;
42410;PMS5003;28056;51.112;0.984;2024-02-26T09:11:32;2;2;
42410;PMS5003;28056;51.112;0.984;2024-02-26T09:14:00;6;6;
42410;PMS5003;28056;51.112;0.984;2024-02-26T09:16:27;5;4;
42410;PMS5003;28056;51.112;0.984;2024-02-26T09:18:54;6;4;
42410;PMS5003;28056;51.112;0.984;2024-02-26T09:21:21;1;1;
42410;PMS5003;28056;51.112;0.984;2024-02-26T09:23:48;6;5;
42410;PMS5003;28056;51.112;0.984;2024-02-26T09:26:15;1;1;
42410;PMS5003;28056;51.112;0.984;2024-02-26T09:28:42;5;4;
42410;PMS5003;28056;51.112;0.984;2024-02-26T09:31:09;4;2;
42410;PMS5003;28056;51.112;0.984;2024-02-26T09:33:37;2;2;
42410;PMS5003;28056;51.112;0.984;2024-02-26T09:36:04;2;2;
42410;PMS5003;28056;51.112;0.984;2024-02-26T09:38:32;2;2;
42410;PMS5003;28056;51.112;0.984;2024-02-26T09:40:59;2;1;
42410;PMS5003;28056;51.112;0.984;2024-02-26T09:43:27;5;2;
42410;PMS5003;28056;51.112;0.984;2024-02-26T09:46:01;2;2;
42410;PMS5003;28056;51.112;0.984;2024-02-26T09:48:29;2;1;
42410;PMS5003;28056;51.112;0.984;2024-02-26T09:50:57;5;2;
42410;PMS5003;28056;51.112;0.984;2024-02-26T09:53:25;4;2;
42410;PMS5003;28056;51.112;0.984;2024-02-26T09:55:54;5;1;
42410;PMS5003;28056;51.112;0.984;2024-02-26T09:58:22;1;1;
42410;PMS5003;28056;51.112;0.984;2024-02-26T10:00:51;8;2;
42410;PMS5003;28056;51.112;0.984;2024-02-26T10:03:22;6;2;
42410;PMS5003;28056;51.112;0.984;2024-02-26T10:05:55;4;4;
42410;PMS5003;28056;51.112;0.984;2024-02-26T10:08:22;2;1;
42410;PMS5003;28056;51.112;0.984;2024-02-26T10:10:50;2;2;
42410;PMS5003;28056;51.112;0.984;2024-02-26T10:13:18;10;5;
42410;PMS5003;28056;51.112;0.984;2024-02-26T10:15:45;9;5;
42410;PMS5003;28056;51.112;0.984;2024-02-26T10:18:12;4;4;
42410;PMS5003;28056;51.112;0.984;2024-02-26T10:20:39;2;2;
42410;PMS5003;28056;51.112;0.984;2024-02-26T10:23:06;4;4;
42410;PMS5003;28056;51.112;0.984;2024-02-26T10:25:38;4;4;
42410;PMS5003;28056;51.112;0.984;2024-02-26T10:28:20;4;1;
42410;PMS5003;28056;51.112;0.984;2024-02-26T10:30:48;5;2;
42410;PMS5003;28056;51.112;0.984;2024-02-26T10:33:17;5;2;
42410;PMS5003;28056;51.112;0.984;2024-02-26T10:35:45;4;2;
42410;PMS5003;28056;51.112;0.984;2024-02-26T10:38:13;4;4;
42410;PMS5003;28056;51.112;0.984;2024-02-26T10:40:41;4;4;
42410;PMS5003;28056;51.112;0.984;2024-02-26T10:43:08;6;5;
42410;PMS5003;28056;51.112;0.984;2024-02-26T10:45:36;2;2;
42410;PMS5003;28056;51.112;0.984;2024-02-26T10:48:04;4;4;
42410;PMS5003;28056;51.112;0.984;2024-02-26T10:50:36;8;6;
42410;PMS5003;28056;51.112;0.984;2024-02-26T10:53:04;4;4;
42410;PMS5003;28056;51.112;0.984;2024-02-26T10:55:39;4;4;
42410;PMS5003;28056;51.112;0.984;2024-02-26T10:58:08;2;2;
42410;PMS5003;28056;51.112;0.984;2024-02-26T11:00:37;10;4;
42410;PMS5003;28056;51.112;0.984;2024-02-26T11:03:05;8;5;
42410;PMS5003;28056;51.112;0.984;2024-02-26T11:05:33;1;1;
42410;PMS5003;28056;51.112;0.984;2024-02-26T11:08:02;2;2;
42410;PMS5003;28056;51.112;0.984;2024-02-26T11:10:31;2;2;
42410;PMS5003;28056;51.112;0.984;2024-02-26T11:12:59;1;1;
42410;PMS5003;28056;51.112;0.984;2024-02-26T11:15:27;2;2;
42410;PMS5003;28056;51.112;0.984;2024-02-26T11:17:55;1;1;
42410;PMS5003;28056;51.112;0.984;2024-02-26T11:20:24;5;4;
42410;PMS5003;28056;51.112;0.984;2024-02-26T11:22:54;2;2;
42410;PMS5003;28056;51.112;0.984;2024-02-26T11:25:22;2;2;
42410;PMS5003;28056;51.112;0.984;2024-02-26T11:27:51;4;1;
42410;PMS5003;28056;51.112;0.984;2024-02-26T11:30:21;4;1;
42410;PMS5003;28056;51.112;0.984;2024-02-26T11:32:50;1;1;
42410;PMS5003;28056;51.112;0.984;2024-02-26T11:35:19;2;2;
42410;PMS5003;28056;51.112;0.984;2024-02-26T11:37:54;1;1;
42410;PMS5003;28056;51.112;0.984;2024-02-26T11:40:23;2;1;
42410;PMS5003;28056;51.112;0.984;2024-02-26T11:42:51;5;2;
42410;PMS5003;28056;51.112;0.984;2024-02-26T11:45:47;2;2;
42410;PMS5003;28056;51.112;0.984;2024-02-26T11:48:15;1;1;
42410;PMS5003;28056;51.112;0.984;2024-02-26T11:50:47;5;2;
42410;PMS5003;28056;51.112;0.984;2024-02-26T11:53:19;0;0;
42410;PMS5003;28056;51.112;0.984;2024-02-26T11:55:48;2;2;
42410;PMS5003;28056;51.112;0.984;2024-02-26T11:58:39;1;1;
42410;PMS5003;28056;51.112;0.984;2024-02-26T12:01:06;2;2;
42410;PMS5003;28056;51.112;0.984;2024-02-26T12:04:04;5;1;
42410;PMS5003;28056;51.112;0.984;2024-02-26T12:06:39;2;2;
42410;PMS5003;28056;51.112;0.984;2024-02-26T12:09:10;1;1;
42410;PMS5003;28056;51.112;0.984;2024-02-26T12:11:38;1;1;
42410;PMS5003;28056;51.112;0.984;2024-02-26T12:14:07;4;1;
42410;PMS5003;28056;51.112;0.984;2024-02-26T12:16:35;1;1;
42410;PMS5003;28056;51.112;0.984;2024-02-26T12:19:03;1;1;
42410;PMS5003;28056;51.112;0.984;2024-02-26T12:21:33;4;1;
42410;PMS5003;28056;51.112;0.984;2024-02-26T12:24:17;4;2;
42410;PMS5003;28056;51.112;0.984;2024-02-26T12:26:45;6;1;
42410;PMS5003;28056;51.112;0.984;2024-02-26T12:29:13;4;1;
42410;PMS5003;28056;51.112;0.984;2024-02-26T12:31:41;2;1;
42410;PMS5003;28056;51.112;0.984;2024-02-26T12:34:09;4;4;
42410;PMS5003;28056;51.112;0.984;2024-02-26T12:36:38;5;2;
42410;PMS5003;28056;51.112;0.984;2024-02-26T12:39:05;6;1;
42410;PMS5003;28056;51.112;0.984;2024-02-26T12:41:39;8;2;
42410;PMS5003;28056;51.112;0.984;2024-02-26T12:44:07;1;1;
42410;PMS5003;28056;51.112;0.984;2024-02-26T12:46:35;4;4;
42410;PMS5003;28056;51.112;0.984;2024-02-26T12:49:02;2;1;
42410;PMS5003;28056;51.112;0.984;2024-02-26T12:51:29;4;2;
42410;PMS5003;28056;51.112;0.984;2024-02-26T12:53:56;5;5;
42410;PMS5003;28056;51.112;0.984;2024-02-26T12:56:24;4;2;
42410;PMS5003;28056;51.112;0.984;2024-02-26T12:58:54;2;1;
42410;PMS5003;28056;51.112;0.984;2024-02-26T13:01:23;2;0;
42410;PMS5003;28056;51.112;0.984;2024-02-26T13:03:52;8;2;
42410;PMS5003;28056;51.112;0.984;2024-02-26T13:06:20;4;1;
42410;PMS5003;28056;51.112;0.984;2024-02-26T13:08:48;2;0;
42410;PMS5003;28056;51.112;0.984;2024-02-26T13:11:16;2;1;
42410;PMS5003;28056;51.112;0.984;2024-02-26T13:13:47;2;1;
42410;PMS5003;28056;51.112;0.984;2024-02-26T13:16:15;1;1;
42410;PMS5003;28056;51.112;0.984;2024-02-26T13:18:42;4;4;
42410;PMS5003;28056;51.112;0.984;2024-02-26T13:21:11;2;2;
42410;PMS5003;28056;51.112;0.984;2024-02-26T13:23:40;6;2;
42410;PMS5003;28056;51.112;0.984;2024-02-26T13:26:11;6;4;
42410;PMS5003;28056;51.112;0.984;2024-02-26T13:28:39;4;2;
42410;PMS5003;28056;51.112;0.984;2024-02-26T13:31:07;2;2;
42410;PMS5003;28056;51.112;0.984;2024-02-26T13:33:35;1;1;
42410;PMS5003;28056;51.112;0.984;2024-02-26T13:36:02;2;1;
42410;PMS5003;28056;51.112;0.984;2024-02-26T13:38:31;5;0;
42410;PMS5003;28056;51.112;0.984;2024-02-26T13:40:58;1;0;
42410;PMS5003;28056;51.112;0.984;2024-02-26T13:43:26;5;2;
42410;PMS5003;28056;51.112;0.984;2024-02-26T13:45:53;1;1;
42410;PMS5003;28056;51.112;0.984;2024-02-26T13:48:20;2;0;
42410;PMS5003;28056;51.112;0.984;2024-02-26T13:50:48;4;4;
42410;PMS5003;28056;51.112;0.984;2024-02-26T13:53:15;4;1;
42410;PMS5003;28056;51.112;0.984;2024-02-26T13:55:42;6;4;
42410;PMS5003;28056;51.112;0.984;2024-02-26T13:58:11;2;2;
42410;PMS5003;28056;51.112;0.984;2024-02-26T14:00:39;4;1;
42410;PMS5003;28056;51.112;0.984;2024-02-26T14:03:06;4;1;
42410;PMS5003;28056;51.112;0.984;2024-02-26T14:05:34;1;1;
42410;PMS5003;28056;51.112;0.984;2024-02-26T14:08:01;2;2;
42410;PMS5003;28056;51.112;0.984;2024-02-26T14:10:29;2;2;
42410;PMS5003;28056;51.112;0.984;2024-02-26T14:12:57;2;0;
42410;PMS5003;28056;51.112;0.984;2024-02-26T14:15:25;1;1;
42410;PMS5003;28056;51.112;0.984;2024-02-26T14:17:53;4;1;
42410;PMS5003;28056;51.112;0.984;2024-02-26T14:20:21;1;1;
42410;PMS5003;28056;51.112;0.984;2024-02-26T14:22:48;0;0;
42410;PMS5003;28056;51.112;0.984;2024-02-26T14:25:16;5;4;
42410;PMS5003;28056;51.112;0.984;2024-02-26T14:27:44;1;1;
42410;PMS5003;28056;51.112;0.984;2024-02-26T14:30:12;1;1;
42410;PMS5003;28056;51.112;0.984;2024-02-26T14:32:40;1;1;
42410;PMS5003;28056;51.112;0.984;2024-02-26T14:35:08;2;1;
42410;PMS5003;28056;51.112;0.984;2024-02-26T14:37:36;2;2;
42410;PMS5003;28056;51.112;0.984;2024-02-26T14:40:04;4;1;
42410;PMS5003;28056;51.112;0.984;2024-02-26T14:42:32;1;1;
42410;PMS5003;28056;51.112;0.984;2024-02-26T14:45:00;1;1;
42410;PMS5003;28056;51.112;0.984;2024-02-26T14:47:27;2;0;
42410;PMS5003;28056;51.112;0.984;2024-02-26T14:49:55;1;1;
42410;PMS5003;28056;51.112;0.984;2024-02-26T14:52:23;1;1;
42410;PMS5003;28056;51.112;0.984;2024-02-26T14:54:50;1;1;
42410;PMS5003;28056;51.112;0.984;2024-02-26T14:57:18;1;1;
42410;PMS5003;28056;51.112;0.984;2024-02-26T14:59:45;1;1;
42410;PMS5003;28056;51.112;0.984;2024-02-26T15:02:12;0;0;
42410;PMS5003;28056;51.112;0.984;2024-02-26T15:04:40;2;2;
42410;PMS5003;28056;51.112;0.984;2024-02-26T15:07:07;0;0;
42410;PMS5003;28056;51.112;0.984;2024-02-26T15:09:35;1;1;
42410;PMS5003;28056;51.112;0.984;2024-02-26T15:12:03;4;2;
42410;PMS5003;28056;51.112;0.984;2024-02-26T15:14:31;1;1;
42410;PMS5003;28056;51.112;0.984;2024-02-26T15:16:58;4;2;
42410;PMS5003;28056;51.112;0.984;2024-02-26T15:19:25;1;1;
42410;PMS5003;28056;51.112;0.984;2024-02-26T15:21:52;5;1;
42410;PMS5003;28056;51.112;0.984;2024-02-26T15:24:19;4;1;
42410;PMS5003;28056;51.112;0.984;2024-02-26T15:26:46;0;0;
42410;PMS5003;28056;51.112;0.984;2024-02-26T15:29:13;2;2;
42410;PMS5003;28056;51.112;0.984;2024-02-26T15:31:41;2;2;
42410;PMS5003;28056;51.112;0.984;2024-02-26T15:34:08;1;1;
42410;PMS5003;28056;51.112;0.984;2024-02-26T15:36:35;1;1;
42410;PMS5003;28056;51.112;0.984;2024-02-26T15:39:02;1;1;
42410;PMS5003;28056;51.112;0.984;2024-02-26T15:41:30;5;1;
42410;PMS5003;28056;51.112;0.984;2024-02-26T15:43:57;1;1;
42410;PMS5003;28056;51.112;0.984;2024-02-26T15:46:24;0;0;
42410;PMS5003;28056;51.112;0.984;2024-02-26T15:48:51;0;0;
42410;PMS5003;28056;51.112;0.984;2024-02-26T15:51:20;5;1;
42410;PMS5003;28056;51.112;0.984;2024-02-26T15:53:48;4;4;
42410;PMS5003;28056;51.112;0.984;2024-02-26T15:56:15;1;1;
42410;PMS5003;28056;51.112;0.984;2024-02-26T15:58:43;1;1;
42410;PMS5003;28056;51.112;0.984;2024-02-26T16:01:10;1;1;
42410;PMS5003;28056;51.112;0.984;2024-02-26T16:03:42;1;1;
42410;PMS5003;28056;51.112;0.984;2024-02-26T16:06:11;1;0;
42410;PMS5003;28056;51.112;0.984;2024-02-26T16:08:45;2;0;
42410;PMS5003;28056;51.112;0.984;2024-02-26T16:11:13;1;1;
42410;PMS5003;28056;51.112;0.984;2024-02-26T16:13:41;1;1;
42410;PMS5003;28056;51.112;0.984;2024-02-26T16:16:11;1;0;
42410;PMS5003;28056;51.112;0.984;2024-02-26T16:18:42;0;0;
42410;PMS5003;28056;51.112;0.984;2024-02-26T16:21:10;2;1;
42410;PMS5003;28056;51.112;0.984;2024-02-26T16:23:37;1;1;
42410;PMS5003;28056;51.112;0.984;2024-02-26T16:26:05;0;0;
42410;PMS5003;28056;51.112;0.984;2024-02-26T16:28:32;5;1;
42410;PMS5003;28056;51.112;0.984;2024-02-26T16:31:01;1;1;
42410;PMS5003;28056;51.112;0.984;2024-02-26T16:33:28;2;1;
42410;PMS5003;28056;51.112;0.984;2024-02-26T16:35:56;2;1;
42410;PMS5003;28056;51.112;0.984;2024-02-26T16:38:23;2;2;
42410;PMS5003;28056;51.112;0.984;2024-02-26T16:40:50;4;4;
42410;PMS5003;28056;51.112;0.984;2024-02-26T16:43:17;0;0;
42410;PMS5003;28056;51.112;0.984;2024-02-26T16:45:44;2;1;
42410;PMS5003;28056;51.112;0.984;2024-02-26T16:48:11;2;0;
42410;PMS5003;28056;51.112;0.984;2024-02-26T16:50:38;1;1;
42410;PMS5003;28056;51.112;0.984;2024-02-26T16:53:11;4;1;
42410;PMS5003;28056;51.112;0.984;2024-02-26T16:55:38;4;2;
42410;PMS5003;28056;51.112;0.984;2024-02-26T16:58:06;2;2;